Flight Track Log - Related Links

Times and Time Zones

All times are in EDT time to prevent confusion due to time zone crossing. See the TAM3362 flight status page for this flight to view local times or setup timezone preferences in your user account.

Time Position Orientation Groundspeed Altitude Reporting Facility
EDT Latitude Longitude Course Direction KTS MPH feet Rate Location/Type
Sun 08:14:40 AM -23.4320 -46.4740 90° East 115 132  Level FlightAware ADS-B
Sun 08:14:59 AM -23.4280 -46.4610 71° East 165 190 2,200 4,133 Climbing FlightAware ADS-B
Sun 08:15:25 AM -23.4230 -46.4400 75° East 165 190 3,100 1,833 Climbing FlightAware ADS-B
Sun 08:15:35 AM -23.4200 -46.4310 70° East 178 205 3,300 1,000 Climbing FlightAware ADS-B
Sun 08:15:55 AM -23.4150 -46.4130 73° East 205 236 3,600 818 Climbing FlightAware ADS-B
Sun 08:16:19 AM -23.4070 -46.3860 72° East 241 277 3,900 933 Climbing FlightAware ADS-B
Sun 08:16:40 AM -23.4010 -46.3680 70° East 259 298 4,300 2,118 Climbing FlightAware ADS-B
Sun 08:17:10 AM -23.3870 -46.3210 72° East 281 323 5,700 2,939 Climbing FlightAware ADS-B
Sun 08:17:29 AM -23.3790 -46.2950 71° East 281 323 6,700 3,000 Climbing FlightAware ADS-B
Sun 08:17:50 AM -23.3710 -46.2670 73° East 283 326 7,700 2,341 Climbing FlightAware ADS-B
Sun 08:18:10 AM -23.3620 -46.2390 71° East 296 341 8,300 2,100 Climbing FlightAware ADS-B
Sun 08:18:30 AM -23.3540 -46.2110 73° East 299 344 9,100 2,291 Climbing FlightAware ADS-B
Sun 08:19:05 AM -23.3380 -46.1590 71° East 312 359 10,400 1,629 Climbing FlightAware ADS-B
Sun 08:19:40 AM -23.3210 -46.1020 72° East 346 398 11,000 1,457 Climbing FlightAware ADS-B
Sun 08:20:15 AM -23.3030 -46.0430 72° East 366 421 12,100 2,057 Climbing FlightAware ADS-B
Sun 08:20:50 AM -23.2840 -45.9800 72° East 373 429 13,400 2,160 Climbing FlightAware ADS-B
Sun 08:21:30 AM -23.2620 -45.9080 72° East 378 435 14,800 2,229 Climbing FlightAware ADS-B
Sun 08:22:00 AM -23.2460 -45.8530 72° East 381 438 16,000 2,400 Climbing FlightAware ADS-B
Sun 08:22:35 AM -23.2320 -45.7900 76° East 378 435 17,400 2,160 Climbing FlightAware ADS-B
Sun 08:23:15 AM -23.2160 -45.7130 77° East 386 444 18,700 1,739 Climbing FlightAware ADS-B
Sun 08:23:44 AM -23.2040 -45.6600 76° East 394 453 19,400 1,304 Climbing FlightAware ADS-B
Sun 08:24:24 AM -23.1860 -45.5750 77° East 413 475 20,200 1,457 Climbing FlightAware ADS-B
Sun 08:24:54 AM -23.1730 -45.5170 76° East 417 480 21,100 1,636 Climbing FlightAware ADS-B
Sun 08:25:30 AM -23.1570 -45.4430 77° East 424 488 22,000 1,606 Climbing FlightAware ADS-B
Sun 08:26:05 AM -23.1420 -45.3710 77° East 427 491 23,000 1,690 Climbing FlightAware ADS-B
Sun 08:26:41 AM -23.1250 -45.2950 76° East 429 494 24,000 1,521 Climbing FlightAware ADS-B
Sun 08:27:16 AM -23.1090 -45.2230 76° East 432 497 24,800 1,371 Climbing FlightAware ADS-B
Sun 08:27:51 AM -23.0930 -45.1460 77° East 437 503 25,600 1,378 Climbing FlightAware ADS-B
Sun 08:28:30 AM -23.0750 -45.0630 77° East 441 507 26,500 1,714 Climbing FlightAware ADS-B
Sun 08:29:01 AM -23.0610 -44.9980 77° East 430 495 27,600 1,545 Climbing FlightAware ADS-B
Sun 08:29:36 AM -23.0440 -44.9230 76° East 436 502 28,200 943 Climbing FlightAware ADS-B
Sun 08:30:11 AM -23.0280 -44.8480 77° East 444 511 28,700 568 Climbing FlightAware ADS-B
Sun 08:30:50 AM -23.0090 -44.7610 77° East 457 526 28,900 600 Climbing FlightAware ADS-B
Sun 08:31:21 AM -22.9930 -44.6900 76° East 463 533 29,400 923 Climbing FlightAware ADS-B
Sun 08:31:55 AM -22.9760 -44.6130 77° East 467 537 29,900 857 Climbing FlightAware ADS-B
Sun 08:32:31 AM -22.9580 -44.5310 77° East 470 541 30,400 943 Climbing FlightAware ADS-B
Sun 08:33:05 AM -22.9410 -44.4540 77° East 469 540 31,000 1,200 Climbing FlightAware ADS-B
Sun 08:33:41 AM -22.9220 -44.3730 76° East 465 535 31,800 1,099 Climbing FlightAware ADS-B
Sun 08:34:16 AM -22.9060 -44.2980 77° East 469 540 32,300 857 Climbing FlightAware ADS-B
Sun 08:34:51 AM -22.8840 -44.2110 75° East 470 541 32,800 771 Climbing FlightAware ADS-B
Sun 08:35:26 AM -22.8490 -44.1350 63° Northeast 472 543 33,200 600 Climbing FlightAware ADS-B
Sun 08:36:01 AM -22.8150 -44.0600 64° Northeast 478 550 33,500 600 Climbing FlightAware ADS-B
Sun 08:36:36 AM -22.7820 -43.9860 64° Northeast 482 555 33,900 686 Climbing FlightAware ADS-B
Sun 08:37:11 AM -22.7470 -43.9080 64° Northeast 485 558 34,300 514 Climbing FlightAware ADS-B
Sun 08:37:46 AM -22.7130 -43.8320 64° Northeast 489 563 34,500 429 Climbing FlightAware ADS-B
Sun 08:38:21 AM -22.6780 -43.7550 64° Northeast 494 568 34,800 514 Climbing FlightAware ADS-B
Sun 08:38:56 AM -22.6430 -43.6790 63° Northeast 498 573 35,100 686 Climbing FlightAware ADS-B
Sun 08:39:31 AM -22.6060 -43.5980 64° Northeast 494 568 35,600 771 Climbing FlightAware ADS-B
Sun 08:40:06 AM -22.5640 -43.5290 57° Northeast 489 563 36,000 676 Climbing FlightAware ADS-B
Sun 08:40:42 AM -22.5160 -43.4590 53° Northeast 485 558 36,400 600 Climbing FlightAware ADS-B
Sun 08:41:16 AM -22.4750 -43.3980 54° Northeast 488 562 36,700 493 Climbing FlightAware ADS-B
Sun 08:41:55 AM -22.4170 -43.3130 54° Northeast 488 562 37,000 254 Climbing FlightAware ADS-B
Sun 08:42:27 AM -22.3740 -43.2490 54° Northeast 489 563 37,000  Level FlightAware ADS-B
Sun 08:43:04 AM -22.3270 -43.1790 54° Northeast 488 562 37,000  Level FlightAware ADS-B
Sun 08:43:39 AM -22.2790 -43.1080 54° Northeast 486 559 37,000  Level FlightAware ADS-B
Sun 08:44:15 AM -22.2320 -43.0400 53° Northeast 483 556 37,000  Level FlightAware ADS-B
Sun 08:44:43 AM -22.1940 -42.9840 54° Northeast 480 552 37,000  Level FlightAware ADS-B
Sun 08:45:29 AM -22.1340 -42.8960 54° Northeast 476 548 37,000  Level FlightAware ADS-B
Sun 08:46:14 AM -22.0770 -42.8110 54° Northeast 473 544 37,000  Level FlightAware ADS-B
Sun 08:46:45 AM -22.0360 -42.7510 54° Northeast 470 541 37,000  Level FlightAware ADS-B
Sun 08:47:27 AM -21.9820 -42.6730 53° Northeast 470 541 37,000  Level FlightAware ADS-B
Sun 08:48:01 AM -21.9370 -42.6080 53° Northeast 471 542 37,000  Level FlightAware ADS-B
Sun 08:48:46 AM -21.8800 -42.5240 54° Northeast 473 544 37,000  Level FlightAware ADS-B
Sun 08:49:23 AM -21.8320 -42.4540 54° Northeast 474 545 37,000  Level FlightAware ADS-B
Sun 08:49:55 AM -21.7890 -42.3920 53° Northeast 475 547 37,000  Level FlightAware ADS-B
Sun 08:50:33 AM -21.7400 -42.3210 53° Northeast 476 548 37,000  Level FlightAware ADS-B
Sun 08:51:05 AM -21.6990 -42.2600 54° Northeast 474 545 37,000  Level FlightAware ADS-B
Sun 08:51:35 AM -21.6600 -42.2040 53° Northeast 474 545 37,000  Level FlightAware ADS-B
Sun 08:52:13 AM -21.6100 -42.1320 53° Northeast 474 545 37,000  Level FlightAware ADS-B
Sun 08:52:51 AM -21.5590 -42.0570 54° Northeast 472 543 37,000  Level FlightAware ADS-B
Sun 08:53:25 AM -21.5150 -41.9940 53° Northeast 472 543 37,000  Level FlightAware ADS-B
Sun 08:54:00 AM -21.4700 -41.9290 53° Northeast 474 545 37,000 -1,371 Level FlightAware ADS-B
Sun 08:54:35 AM -21.4240 -41.8630 53° Northeast 488 562 35,400 -3,945 Descending FlightAware ADS-B
Sun 08:55:13 AM -21.3690 -41.7830 54° Northeast 517 595 32,200 -4,588 Descending FlightAware ADS-B
Sun 08:55:43 AM -21.3280 -41.7240 53° Northeast 522 601 30,200 -2,964 Descending FlightAware ADS-B
Sun 08:56:36 AM -21.2610 -41.6270 53° Northeast 494 568 28,100 -2,621 Descending FlightAware ADS-B
Sun 08:57:10 AM -21.2170 -41.5660 52° Northeast 485 558 26,400 -1,378 Descending FlightAware ADS-B
Sun 08:57:50 AM -21.1710 -41.5010 53° Northeast 485 558 26,400  Level FlightAware ADS-B
Sun 08:58:26 AM -21.1300 -41.4420 53° Northeast 485 558 26,400  Level FlightAware ADS-B
Sun 08:59:03 AM -21.0880 -41.3820 53° Northeast 485 558 26,400  Level FlightAware ADS-B
Sun 08:59:39 AM -21.0460 -41.3230 53° Northeast 485 558 26,400 -7,565 Level FlightAware ADS-B
Sun 08:59:49 AM -21.0680 -41.3540 233° Southwest 562 647 20,600 -11,486 Descending FlightAware ADS-B
Sun 09:00:14 AM -21.0380 -41.3110 53° Northeast 444 511 19,700 -2,444 Descending FlightAware ADS-B
Sun 09:00:43 AM -21.0000 -41.2570 53° Northeast 436 502 18,400 -2,308 Descending FlightAware ADS-B
Sun 09:01:19 AM -20.9570 -41.1940 54° Northeast 420 483 17,200 -2,137 Descending FlightAware ADS-B
Sun 09:01:56 AM -20.9070 -41.1230 53° Northeast 405 466 15,800 -1,973 Descending FlightAware ADS-B
Sun 09:02:32 AM -20.8700 -41.0710 53° Northeast 394 453 14,800 -1,644 Descending FlightAware ADS-B
Sun 09:03:09 AM -20.8340 -41.0200 53° Northeast 385 443 13,800 -917 Descending FlightAware ADS-B
Sun 09:03:44 AM -20.8040 -40.9770 53° Northeast 384 442 13,700 -85 Descending FlightAware ADS-B
Sun 09:04:20 AM -20.7710 -40.9300 53° Northeast 384 442 13,700 -2,704 Level FlightAware ADS-B
Sun 09:04:55 AM -20.7260 -40.8480 60° Northeast 353 406 10,500 -3,273 Descending FlightAware ADS-B
Sun 09:05:26 AM -20.6950 -40.7960 57° Northeast 323 372 10,100 -682 Descending FlightAware ADS-B
Sun 09:05:39 AM -20.6890 -40.7860 57° Northeast 317 365 10,000 -649 Descending FlightAware ADS-B
Sun 09:06:03 AM -20.6720 -40.7580 57° Northeast 303 349 9,700 -1,091 Descending FlightAware ADS-B
Sun 09:06:23 AM -20.6540 -40.7280 57° Northeast 297 342 9,200 -706 Descending FlightAware ADS-B
Sun 09:06:54 AM -20.6330 -40.6930 57° Northeast 294 338 9,100 -107 Descending FlightAware ADS-B
Sun 09:07:19 AM -20.6180 -40.6670 58° Northeast 294 338 9,100  Level FlightAware ADS-B
Sun 09:07:43 AM -20.6030 -40.6420 57° Northeast 294 338 9,100  Level FlightAware ADS-B
Sun 09:08:07 AM -20.5870 -40.6180 55° Northeast 294 338 9,100 -1,706 Level FlightAware ADS-B
Sun 09:10:00 AM -20.4761 -40.5060 43° Northeast  Level Estimated
Sun 09:11:00 AM -20.4172 -40.4466 43° Northeast  Level Estimated
Sun 09:11:00 AM -20.4630 -40.4220 43° Northeast 224 258 3,500  Level FlightAware ADS-B
Sun 09:11:25 AM -20.4350 -40.4040 31° Northeast 203 234 3,500  Level FlightAware ADS-B
Sun 09:11:42 AM -20.4230 -40.3960 32° Northeast 202 232 3,500  Level FlightAware ADS-B
Sun 09:12:07 AM -20.4070 -40.3860 30° Northeast 198 228 3,500 -500 Level FlightAware ADS-B
Sun 09:12:18 AM -20.3960 -40.3780 34° Northeast 190 219 3,200 -1,317 Descending FlightAware ADS-B
Sun 09:12:48 AM -20.3730 -40.3630 31° Northeast 183 211 2,600 -1,119 Descending FlightAware ADS-B
Sun 09:13:17 AM -20.3530 -40.3490 33° Northeast 164 189 2,100 -1,021 Descending FlightAware ADS-B
Sun 09:13:35 AM -20.3430 -40.3430 29° Northeast 154 177 1,800 -1,000 Descending FlightAware ADS-B
Sun 09:13:59 AM -20.3280 -40.3340 29° Northeast 145 167 1,400 -900 Descending FlightAware ADS-B
Sun 09:14:15 AM -20.3190 -40.3270 36° Northeast 146 168 1,200 -878 Descending FlightAware ADS-B
Sun 09:14:40 AM -20.3060 -40.3180 33° Northeast 141 162 800 -955 Descending FlightAware ADS-B
Sun 09:14:59 AM -20.2940 -40.3100 32° Northeast 145 167 500 -973 Descending FlightAware ADS-B
Sun 09:15:17 AM -20.2830 -40.3030 31° Northeast 142 163 200 -706 Descending FlightAware ADS-B
Sun 09:15:33 AM -20.2760 -40.2990 28° Northeast 142 163 100 -375 Descending FlightAware ADS-B
Sun 09:15:58 AM -20.2710 -40.2960 29° Northeast 142 163 -240 Descending FlightAware ADS-B
Sun 09:16:16 AM -20.2650 -40.2920 32° Northeast 143 165  Level FlightAware ADS-B
Sun 09:16:38 AM -20.2600 -40.2880 37° Northeast 140 161  Level FlightAware ADS-B
Sun 09:16:44 AM -20.2570 -40.2860 32° Northeast 140 161  Level FlightAware ADS-B
Sun 09:17:02 AM -20.2530 -40.2830 35° Northeast 140 161  Level FlightAware ADS-B
Sun 09:17:22 AM -20.2540 -40.2840 223° Southwest 140 161  Level FlightAware ADS-B
Sun 09:17:45 AM -20.2570 -40.2860 212° Southwest 140 161  Level FlightAware ADS-B
Sun 09:18:07 AM -20.2570 -40.2870 270° West 140 161  Level FlightAware ADS-B
Sun 09:18:32 AM -20.2570 -40.2880 270° West 140 161  Level FlightAware ADS-B
Sun 09:18:56 AM -20.2570 -40.2890 270° West 140 161  Level FlightAware ADS-B
Sun 09:19:24 AM -20.2620 -40.2730 108° East 140 161  Level FlightAware ADS-B
Sun 09:19:53 AM -20.2620 -40.2740 270° West 140 161  Level FlightAware ADS-B
Sun 09:20:25 AM -20.2620 -40.2730 90° East 140 161  Level FlightAware ADS-B
Sun 09:20:58 AM -20.2610 -40.2750 298° West 140 161  Level FlightAware ADS-B
Sun 09:21:30 AM -20.2610 -40.2740 90° East 140 161  Level FlightAware ADS-B
Sun 09:22:06 AM -20.2620 -40.2730 137° Southeast 140 161  Level FlightAware ADS-B
Sun 09:22:46 AM -20.2610 -40.2750 298° West 140 161  Level FlightAware ADS-B
Sun 09:23:18 AM -20.2620 -40.2740 137° Southeast 140 161  Level FlightAware ADS-B
Sun 09:23:34 AM -20.2570 -40.2890 290° West 140 161  Level FlightAware ADS-B
Sun 09:24:02 AM -20.2620 -40.2730 108° East 140 161  Level FlightAware ADS-B
Sun 09:24:30 AM -20.2610 -40.2740 317° Northwest 140 161  Level FlightAware ADS-B
Sun 09:24:59 AM -20.2570 -40.2890 286° West 140 161  Level FlightAware ADS-B
Sun 09:25:26 AM -20.2620 -40.2740 110° East 140 161  Level FlightAware ADS-B
Sun 09:26:10 AM -20.2570 -40.2890 290° West 140 161  Level FlightAware ADS-B
Sun 09:26:38 AM -20.2620 -40.2730 108° East 140 161  Level FlightAware ADS-B
Sun 09:27:06 AM -20.2610 -40.2750 298° West 140 161  Level FlightAware ADS-B
Sun 09:27:43 AM -20.2610 -40.2740 90° East 140 161  Level FlightAware ADS-B
Sun 09:28:51 AM -20.2620 -40.2740 180° South 140 161  Level FlightAware ADS-B
Sun 09:29:53 AM -20.2570 -40.2890 290° West 140 161  Level FlightAware ADS-B
Sun 09:30:19 AM -20.2610 -40.2740 106° East 140 161  Level FlightAware ADS-B
Sun 09:30:51 AM -20.2620 -40.2740 180° South 140 161  Level FlightAware ADS-B
Sun 09:30:51 AM -20.2620 -40.2740 13° North 140 161  Level FlightAware ADS-B
Sun 09:30:51 AM -20.2620 -40.2740 13° North 140 161  Level FlightAware ADS-B
Sun 09:33:00 AM -20.2581 -40.2864 289° West  Level Estimated
Sun 09:34:00 AM -20.2581 -40.2864 13° North  Level Estimated
Sun 09:36:00 AM -20.2581 -40.2864 289° West  Level Estimated
Sun 09:37:00 AM -20.2581 -40.2864 13° North  Level Estimated
Sun 09:38:00 AM -20.2581 -40.2864 13° North  Level Estimated
Sun 09:39:00 AM -20.2581 -40.2864 13° North  Level Estimated
Sun 09:40:00 AM -20.2581 -40.2864 13° North  Level Estimated
Sun 09:41:00 AM -20.2581 -40.2864 13° North  Level Estimated
Sun 09:44:00 AM -20.2581 -40.2864 289° West  Level Estimated
Sun 09:45:00 AM -20.2581 -40.2864 13° North  Level Estimated
Sun 09:46:00 AM -20.2581 -40.2864 13° North  Level Estimated
Sun 09:47:00 AM -20.2581 -40.2864 13° North  Level Estimated
Sun 09:48:00 AM -20.2581 -40.2864 13° North  Level Estimated
Sun 09:49:00 AM -20.2581 -40.2864 13° North  Level Estimated
Sun 09:50:00 AM -20.2581 -40.2864 13° North  Level Estimated
Sun 09:51:00 AM -20.2581 -40.2864 13° North  Level Estimated

Login

Don't have an account? Register now (free) for customized features, flight alerts, and more!